createdAt,value
2022-11-21T00:00:15.230Z,1.79
2022-11-21T00:01:15.232Z,1.82
2022-11-21T00:02:15.260Z,1.79
2022-11-21T00:03:15.225Z,1.76
2022-11-21T00:04:15.189Z,1.80
2022-11-21T00:05:15.192Z,1.89
2022-11-21T00:06:15.186Z,1.87
2022-11-21T00:07:15.201Z,1.93
2022-11-21T00:08:15.180Z,1.87
2022-11-21T00:09:15.165Z,1.80
2022-11-21T00:10:15.149Z,1.85
2022-11-21T00:11:15.138Z,1.82
2022-11-21T00:12:15.121Z,1.79
2022-11-21T00:13:15.137Z,1.89
2022-11-21T00:14:15.114Z,1.73
2022-11-21T00:15:15.107Z,1.90
2022-11-21T00:16:15.120Z,1.83
2022-11-21T00:17:15.084Z,1.68
2022-11-21T00:18:15.091Z,1.71
2022-11-21T00:19:15.064Z,1.72
2022-11-21T00:20:15.054Z,1.76
2022-11-21T00:21:15.049Z,1.72
2022-11-21T00:22:15.041Z,1.73
2022-11-21T00:23:15.047Z,1.64
2022-11-21T00:24:16.028Z,1.64
2022-11-21T00:25:15.011Z,1.69
2022-11-21T00:26:15.009Z,1.75
2022-11-21T00:27:14.991Z,1.60
2022-11-21T00:28:14.987Z,1.54
2022-11-21T00:29:14.995Z,1.62
2022-11-21T00:30:15.005Z,1.43
2022-11-21T00:31:14.961Z,1.43
2022-11-21T00:32:14.947Z,1.32
2022-11-21T00:33:14.949Z,1.22
2022-11-21T00:34:14.950Z,1.16
2022-11-21T00:35:14.925Z,1.10
2022-11-21T00:36:14.915Z,1.19
2022-11-21T00:37:14.909Z,1.21
2022-11-21T00:38:14.894Z,1.12
2022-11-21T00:39:14.907Z,1.15
2022-11-21T00:40:14.873Z,1.12
2022-11-21T00:41:14.875Z,1.16
2022-11-21T00:42:14.860Z,1.24
2022-11-21T00:43:14.853Z,1.06
2022-11-21T00:44:14.855Z,1.21
2022-11-21T00:45:18.331Z,1.24
2022-11-21T00:46:15.831Z,1.28
2022-11-21T00:47:14.827Z,1.36
2022-11-21T00:48:14.803Z,1.43
2022-11-21T00:49:14.814Z,1.34
2022-11-21T00:50:14.791Z,1.47
2022-11-21T00:51:14.780Z,1.44
2022-11-21T00:52:14.766Z,1.47
2022-11-21T00:53:14.760Z,1.55
2022-11-21T00:54:14.770Z,1.43
2022-11-21T00:55:14.748Z,1.39
2022-11-21T00:56:14.728Z,1.51
2022-11-21T00:57:14.727Z,1.51
2022-11-21T00:58:14.725Z,1.37
2022-11-21T00:59:14.728Z,1.47
2022-11-21T01:00:14.711Z,1.29
2022-11-21T01:01:14.731Z,1.52
2022-11-21T01:02:14.684Z,1.65
2022-11-21T01:03:14.678Z,1.46
2022-11-21T01:05:32.533Z,1.50
2022-11-21T01:06:32.546Z,1.60
2022-11-21T01:07:32.567Z,1.64
2022-11-21T01:08:32.542Z,1.57
2022-11-21T01:09:32.517Z,1.65
2022-11-21T01:10:33.624Z,1.64
2022-11-21T01:11:33.623Z,1.68
2022-11-21T01:12:33.610Z,1.60
2022-11-21T01:13:33.627Z,1.65
2022-11-21T01:14:33.588Z,1.65
2022-11-21T01:15:33.598Z,1.58
2022-11-21T01:16:33.575Z,1.55
2022-11-21T01:17:33.565Z,1.52
2022-11-21T01:18:33.592Z,1.47
2022-11-21T01:19:33.547Z,1.60
2022-11-21T01:20:33.540Z,1.55
2022-11-21T01:21:33.533Z,1.57
2022-11-21T01:22:33.527Z,1.61
2022-11-21T01:23:33.509Z,1.51
2022-11-21T01:24:33.518Z,1.55
2022-11-21T01:25:34.491Z,1.60
2022-11-21T01:26:33.496Z,1.57
2022-11-21T01:27:33.482Z,1.60
2022-11-21T01:28:33.485Z,1.44
2022-11-21T01:29:33.483Z,1.40
2022-11-21T01:30:33.454Z,1.36
2022-11-21T01:31:33.451Z,1.36
2022-11-21T01:32:33.442Z,1.34
2022-11-21T01:33:33.412Z,1.32
2022-11-21T01:34:33.440Z,1.33
2022-11-21T01:35:33.406Z,1.33
2022-11-21T01:36:33.401Z,1.32
2022-11-21T01:37:33.386Z,1.25
2022-11-21T01:38:33.378Z,1.28
2022-11-21T01:39:33.389Z,1.24
2022-11-21T01:40:33.363Z,1.22
2022-11-21T01:41:33.355Z,1.24
2022-11-21T01:42:33.345Z,1.15
2022-11-21T01:43:33.336Z,1.28
2022-11-21T01:44:33.339Z,1.28
2022-11-21T01:45:33.313Z,1.33
2022-11-21T01:46:33.305Z,1.33
2022-11-21T01:47:33.294Z,1.44
2022-11-21T01:48:33.289Z,1.40
2022-11-21T01:49:33.284Z,1.40
2022-11-21T01:50:33.256Z,1.42
2022-11-21T01:51:33.254Z,1.37
2022-11-21T01:52:33.246Z,1.51
2022-11-21T01:53:33.233Z,1.47
2022-11-21T01:54:33.243Z,1.47
2022-11-21T01:55:33.222Z,1.47
2022-11-21T01:56:33.213Z,1.52
2022-11-21T01:57:33.200Z,1.47
2022-11-21T01:58:33.191Z,1.44
2022-11-21T01:59:33.226Z,1.37
2022-11-21T02:00:33.167Z,1.33
2022-11-21T02:01:33.153Z,1.37
2022-11-21T02:02:33.153Z,1.54
2022-11-21T02:03:33.148Z,1.34
2022-11-21T02:04:33.155Z,1.34
2022-11-21T02:05:33.119Z,1.37
2022-11-21T02:06:33.117Z,1.34
2022-11-21T02:07:33.153Z,1.40
2022-11-21T02:08:33.103Z,1.36
2022-11-21T02:09:33.106Z,1.37
2022-11-21T02:10:33.085Z,1.25
2022-11-21T02:11:33.079Z,1.33
2022-11-21T02:12:33.064Z,1.46
2022-11-21T02:13:33.047Z,1.46
2022-11-21T02:14:33.060Z,1.42
2022-11-21T02:15:33.042Z,1.39
2022-11-21T02:16:33.032Z,1.34
2022-11-21T02:17:33.013Z,1.36
2022-11-21T02:18:33.008Z,1.25
2022-11-21T02:19:33.027Z,1.36
2022-11-21T02:20:32.988Z,1.26
2022-11-21T02:21:32.976Z,1.32
2022-11-21T02:22:32.971Z,1.29
2022-11-21T02:23:32.963Z,1.26
2022-11-21T02:24:32.993Z,1.40
2022-11-21T02:25:32.940Z,1.34
2022-11-21T02:26:33.022Z,1.37
2022-11-21T02:27:32.931Z,1.33
2022-11-21T02:28:32.920Z,1.34
2022-11-21T02:29:32.920Z,1.32
2022-11-21T02:30:32.888Z,1.29
2022-11-21T02:31:32.894Z,1.29
2022-11-21T02:32:32.879Z,1.34
2022-11-21T02:33:32.866Z,1.28
2022-11-21T02:34:32.887Z,1.28
2022-11-21T02:35:32.883Z,1.21
2022-11-21T02:36:32.834Z,1.33
2022-11-21T02:37:32.868Z,1.22
2022-11-21T02:38:32.829Z,1.21
2022-11-21T02:39:32.841Z,1.26
2022-11-21T02:40:32.808Z,1.24
2022-11-21T02:41:32.806Z,1.19
2022-11-21T02:42:32.790Z,1.08
2022-11-21T02:43:32.784Z,1.18
2022-11-21T02:44:32.859Z,1.07
2022-11-21T02:45:32.766Z,1.04
2022-11-21T02:46:32.756Z,1.08
2022-11-21T02:47:32.754Z,1.01
2022-11-21T02:48:32.739Z,0.97
2022-11-21T02:49:32.751Z,0.96
2022-11-21T02:50:32.726Z,1.01
2022-11-21T02:51:32.722Z,1.03
2022-11-21T02:52:32.696Z,0.96
2022-11-21T02:53:32.712Z,0.97
2022-11-21T02:54:32.711Z,0.98
2022-11-21T02:55:32.684Z,1.01
2022-11-21T02:56:32.664Z,0.89
2022-11-21T02:57:32.661Z,1.00
2022-11-21T02:58:32.652Z,0.94
2022-11-21T02:59:32.660Z,0.94
2022-11-21T03:00:32.678Z,0.96
2022-11-21T03:01:32.698Z,1.01
2022-11-21T03:02:32.610Z,1.04
2022-11-21T03:03:32.603Z,0.94
2022-11-21T03:04:32.617Z,1.04
2022-11-21T03:05:32.583Z,0.90
2022-11-21T03:06:32.570Z,1.00
2022-11-21T03:07:32.605Z,1.01
2022-11-21T03:08:32.555Z,0.97
2022-11-21T03:09:32.573Z,1.00
2022-11-21T03:10:32.536Z,0.98
2022-11-21T03:11:32.528Z,1.00
2022-11-21T03:12:32.520Z,1.10
2022-11-21T03:13:32.511Z,0.98
2022-11-21T03:14:32.523Z,1.03
2022-11-21T03:15:32.493Z,1.00
2022-11-21T03:16:32.486Z,0.97
2022-11-21T03:17:32.479Z,0.96
2022-11-21T03:18:32.463Z,1.06
2022-11-21T03:19:32.480Z,1.04
2022-11-21T03:20:32.447Z,0.98
2022-11-21T03:21:32.446Z,1.06
2022-11-21T03:22:32.438Z,0.97
2022-11-21T03:23:32.422Z,1.03
2022-11-21T03:24:32.433Z,1.00
2022-11-21T03:25:32.403Z,0.90
2022-11-21T03:26:32.407Z,0.96
2022-11-21T03:27:32.378Z,0.90
2022-11-21T03:28:32.373Z,0.85
2022-11-21T03:29:32.384Z,0.86
2022-11-21T03:30:32.353Z,0.92
2022-11-21T03:31:32.342Z,0.85
2022-11-21T03:32:32.333Z,0.97
2022-11-21T03:33:32.327Z,0.83
2022-11-21T03:34:32.333Z,0.89
2022-11-21T03:35:32.297Z,0.86
2022-11-21T03:36:32.296Z,0.97
2022-11-21T03:37:32.290Z,0.83
2022-11-21T03:38:32.285Z,0.96
2022-11-21T03:39:32.293Z,0.89
2022-11-21T03:40:32.249Z,0.89
2022-11-21T03:41:32.257Z,0.85
2022-11-21T03:42:32.238Z,0.80
2022-11-21T03:43:32.229Z,0.96
2022-11-21T03:44:32.234Z,0.90
2022-11-21T03:45:32.212Z,0.96
2022-11-21T03:46:32.202Z,0.94
2022-11-21T03:47:32.197Z,0.92
2022-11-21T03:48:32.192Z,0.89
2022-11-21T03:49:32.208Z,0.89
2022-11-21T03:50:32.170Z,0.89
2022-11-21T03:51:32.159Z,0.85
2022-11-21T03:52:32.146Z,0.97
2022-11-21T03:53:32.143Z,0.83
2022-11-21T03:54:32.130Z,0.92
2022-11-21T03:55:32.147Z,0.92
2022-11-21T03:56:32.113Z,0.89
2022-11-21T03:57:32.107Z,0.88
2022-11-21T03:58:32.105Z,0.96
2022-11-21T03:59:32.086Z,0.86
2022-11-21T04:00:32.090Z,0.86
2022-11-21T04:01:36.442Z,0.94
2022-11-21T04:02:33.089Z,0.90
2022-11-21T04:03:32.058Z,0.94
2022-11-21T04:04:32.026Z,0.97
2022-11-21T04:05:32.059Z,1.01
2022-11-21T04:06:32.032Z,0.90
2022-11-21T04:07:32.070Z,1.00
2022-11-21T04:08:32.007Z,1.03
2022-11-21T04:09:31.992Z,1.01
2022-11-21T04:10:32.009Z,1.10
2022-11-21T04:11:31.976Z,1.15
2022-11-21T04:12:31.965Z,1.15
2022-11-21T04:13:31.954Z,1.22
2022-11-21T04:14:31.948Z,1.15
2022-11-21T04:15:31.971Z,1.28
2022-11-21T04:16:31.927Z,1.22
2022-11-21T04:17:31.918Z,1.24
2022-11-21T04:18:31.925Z,1.28
2022-11-21T04:19:31.901Z,1.34
2022-11-21T04:20:31.912Z,1.32
2022-11-21T04:21:31.875Z,1.32
2022-11-21T04:22:31.873Z,1.33
2022-11-21T04:23:31.915Z,1.37
2022-11-21T04:24:31.854Z,1.28
2022-11-21T04:25:31.858Z,1.43
2022-11-21T04:26:31.828Z,1.37
2022-11-21T04:27:31.820Z,1.33
2022-11-21T04:28:31.814Z,1.37
2022-11-21T04:29:31.799Z,1.44
2022-11-21T04:30:31.812Z,1.39
2022-11-21T04:31:31.778Z,1.37
2022-11-21T04:32:31.804Z,1.39
2022-11-21T04:33:31.772Z,1.40
2022-11-21T04:34:31.759Z,1.40
2022-11-21T04:35:31.763Z,1.37
2022-11-21T04:36:31.801Z,1.32
2022-11-21T04:37:31.730Z,1.36
2022-11-21T04:38:31.727Z,1.40
2022-11-21T04:39:31.731Z,1.29
2022-11-21T04:40:31.726Z,1.32
2022-11-21T04:41:31.698Z,1.32
2022-11-21T04:42:31.686Z,1.33
2022-11-21T04:43:31.674Z,1.24
2022-11-21T04:44:31.675Z,1.25
2022-11-21T04:45:31.698Z,1.32
2022-11-21T04:46:31.655Z,1.25
2022-11-21T04:47:31.646Z,1.29
2022-11-21T04:48:31.656Z,1.19
2022-11-21T04:49:31.632Z,1.08
2022-11-21T04:50:31.639Z,1.15
2022-11-21T04:51:31.617Z,1.15
2022-11-21T04:52:31.605Z,1.18
2022-11-21T04:53:31.609Z,1.25
2022-11-21T04:54:31.728Z,1.29
2022-11-21T04:55:31.600Z,1.25
2022-11-21T04:56:31.568Z,1.32
2022-11-21T04:57:31.558Z,1.29
2022-11-21T04:58:31.552Z,1.28
2022-11-21T04:59:31.537Z,1.42
2022-11-21T05:00:31.555Z,1.39
2022-11-21T05:01:31.581Z,1.43
2022-11-21T05:02:31.518Z,1.50
2022-11-21T05:03:31.507Z,1.34
2022-11-21T05:04:31.498Z,1.39
2022-11-21T05:05:31.517Z,1.34
2022-11-21T05:06:31.486Z,1.46
2022-11-21T05:07:31.464Z,1.33
2022-11-21T05:08:31.455Z,1.40
2022-11-21T05:09:31.458Z,1.50
2022-11-21T05:10:31.468Z,1.34
2022-11-21T05:11:31.442Z,1.46
2022-11-21T05:12:31.428Z,1.51
2022-11-21T05:13:31.429Z,1.50
2022-11-21T05:14:31.413Z,1.47
2022-11-21T05:15:31.424Z,1.39
2022-11-21T05:16:31.396Z,1.40
2022-11-21T05:17:31.386Z,1.52
2022-11-21T05:18:31.381Z,1.40
2022-11-21T05:19:31.375Z,1.54
2022-11-21T05:20:35.675Z,1.47
2022-11-21T05:21:33.355Z,1.58
2022-11-21T05:22:31.343Z,1.51
2022-11-21T05:23:31.328Z,1.44
2022-11-21T05:24:31.327Z,1.32
2022-11-21T05:25:31.340Z,1.34
2022-11-21T05:26:31.315Z,1.43
2022-11-21T05:27:31.291Z,1.52
2022-11-21T05:28:31.297Z,1.42
2022-11-21T05:29:31.290Z,1.44
2022-11-21T05:30:31.292Z,1.46
2022-11-21T05:31:31.263Z,1.54
2022-11-21T05:32:31.255Z,1.42
2022-11-21T05:33:31.251Z,1.52
2022-11-21T05:34:31.318Z,1.54
2022-11-21T05:35:31.250Z,1.42
2022-11-21T05:36:31.225Z,1.37
2022-11-21T05:37:31.214Z,1.51
2022-11-21T05:38:31.220Z,1.46
2022-11-21T05:39:31.186Z,1.39
2022-11-21T05:40:31.210Z,1.55
2022-11-21T05:41:31.188Z,1.55
2022-11-21T05:42:31.176Z,1.57
2022-11-21T05:43:31.172Z,1.58
2022-11-21T05:44:31.459Z,1.57
2022-11-21T05:45:31.170Z,1.62
2022-11-21T05:46:31.172Z,1.58
2022-11-21T05:47:31.126Z,1.57
2022-11-21T05:48:31.120Z,1.58
2022-11-21T05:49:31.118Z,1.52
2022-11-21T05:50:31.128Z,1.51
2022-11-21T05:51:31.091Z,1.47
2022-11-21T05:52:31.104Z,1.34
2022-11-21T05:53:31.074Z,1.46
2022-11-21T05:54:31.190Z,1.52
2022-11-21T05:55:31.173Z,1.55
2022-11-21T05:56:31.063Z,1.37
2022-11-21T05:57:31.042Z,1.37
2022-11-21T05:58:31.039Z,1.57
2022-11-21T05:59:31.028Z,1.50
2022-11-21T06:00:31.039Z,1.51
2022-11-21T06:01:31.014Z,1.40
2022-11-21T06:02:30.996Z,1.46
2022-11-21T06:03:31.011Z,1.46
2022-11-21T06:04:31.099Z,1.43
2022-11-21T06:05:30.998Z,1.50
2022-11-21T06:06:30.968Z,1.50
2022-11-21T06:07:31.004Z,1.39
2022-11-21T06:08:30.960Z,1.26
2022-11-21T06:09:30.942Z,1.46
2022-11-21T06:10:30.952Z,1.46
2022-11-21T06:11:30.927Z,1.43
2022-11-21T06:12:30.918Z,1.32
2022-11-21T06:13:30.915Z,1.43
2022-11-21T06:14:30.985Z,1.43
2022-11-21T06:15:30.904Z,1.34
2022-11-21T06:16:30.883Z,1.33
2022-11-21T06:17:30.871Z,1.43
2022-11-21T06:18:30.873Z,1.52
2022-11-21T06:19:30.877Z,1.43
2022-11-21T06:20:30.867Z,1.55
2022-11-21T06:21:30.865Z,1.46
2022-11-21T06:22:30.831Z,1.44
2022-11-21T06:23:30.831Z,1.44
2022-11-21T06:24:30.889Z,1.60
2022-11-21T06:25:30.820Z,1.60
2022-11-21T06:26:30.799Z,1.39
2022-11-21T06:27:30.812Z,1.43
2022-11-21T06:28:30.772Z,1.51
2022-11-21T06:29:31.809Z,1.55
2022-11-21T06:30:30.789Z,1.52
2022-11-21T06:31:30.755Z,1.52
2022-11-21T06:32:30.763Z,1.44
2022-11-21T06:33:30.734Z,1.51
2022-11-21T06:34:31.025Z,1.42
2022-11-21T06:35:30.738Z,1.51
2022-11-21T06:36:30.701Z,1.51
2022-11-21T06:37:30.696Z,1.46
2022-11-21T06:38:30.697Z,1.52
2022-11-21T06:39:30.690Z,1.46
2022-11-21T06:40:30.698Z,1.50
2022-11-21T06:41:30.671Z,1.50
2022-11-21T06:42:30.671Z,1.55
2022-11-21T06:43:30.663Z,1.51
2022-11-21T06:44:30.942Z,1.60
2022-11-21T06:45:30.656Z,1.47
2022-11-21T06:46:30.632Z,1.55
2022-11-21T06:47:30.618Z,1.32
2022-11-21T06:48:30.614Z,1.61
2022-11-21T06:49:30.605Z,1.60
2022-11-21T06:50:30.596Z,1.50
2022-11-21T06:51:30.605Z,1.54
2022-11-21T06:52:30.568Z,1.50
2022-11-21T06:53:30.567Z,1.54
2022-11-21T06:54:30.798Z,1.44
2022-11-21T06:55:30.577Z,1.57
2022-11-21T06:56:30.543Z,1.65
2022-11-21T06:57:30.535Z,1.58
2022-11-21T06:58:30.532Z,1.55
2022-11-21T06:59:30.525Z,1.57
2022-11-21T07:00:30.566Z,1.44
2022-11-21T07:01:30.555Z,1.57
2022-11-21T07:02:30.491Z,1.47
2022-11-21T07:03:31.484Z,1.36
2022-11-21T07:04:30.915Z,1.37
2022-11-21T07:05:56.383Z,1.43
2022-11-21T07:06:30.455Z,1.50
2022-11-21T07:07:30.497Z,1.42
2022-11-21T07:08:30.490Z,1.40
2022-11-21T07:09:34.248Z,1.39
2022-11-21T07:10:31.480Z,1.46
2022-11-21T07:11:30.464Z,1.43
2022-11-21T07:12:31.718Z,1.46
2022-11-21T07:13:30.426Z,1.55
2022-11-21T07:14:30.513Z,1.50
2022-11-21T07:15:30.452Z,1.55
2022-11-21T07:16:30.396Z,1.58
2022-11-21T07:17:30.356Z,1.46
2022-11-21T07:18:30.358Z,1.54
2022-11-21T07:19:30.541Z,1.55
2022-11-21T07:20:30.349Z,1.47
2022-11-21T07:21:30.351Z,1.55
2022-11-21T07:22:30.323Z,1.47
2022-11-21T07:23:30.314Z,1.50
2022-11-21T07:24:30.299Z,1.44
2022-11-21T07:25:35.207Z,1.37
2022-11-21T07:26:30.315Z,1.33
2022-11-21T07:27:30.285Z,1.34
2022-11-21T07:28:30.268Z,1.29
2022-11-21T07:29:30.619Z,1.29
2022-11-21T07:30:30.265Z,1.33
2022-11-21T07:31:30.252Z,1.37
2022-11-21T07:32:30.224Z,1.34
2022-11-21T07:33:30.210Z,1.40
2022-11-21T07:34:30.231Z,1.50
2022-11-21T07:35:30.202Z,1.58
2022-11-21T07:36:32.488Z,1.47
2022-11-21T07:37:31.180Z,1.57
2022-11-21T07:38:30.179Z,1.64
2022-11-21T07:39:30.323Z,1.73
2022-11-21T07:40:30.189Z,1.62
2022-11-21T07:41:30.167Z,1.62
2022-11-21T07:42:30.137Z,1.61
2022-11-21T07:43:30.128Z,1.71
2022-11-21T07:44:30.145Z,1.65
2022-11-21T07:45:30.109Z,1.72
2022-11-21T07:46:30.127Z,1.69
2022-11-21T07:47:30.097Z,1.83
2022-11-21T07:48:30.083Z,1.68
2022-11-21T07:49:30.495Z,1.72
2022-11-21T07:50:30.075Z,1.72
2022-11-21T07:51:30.082Z,1.68
2022-11-21T07:52:30.076Z,1.75
2022-11-21T07:53:30.045Z,1.62
2022-11-21T07:54:30.037Z,1.72
2022-11-21T07:55:30.031Z,1.61
2022-11-21T07:56:30.038Z,1.64
2022-11-21T07:57:30.006Z,1.61
2022-11-21T07:58:30.008Z,1.69
2022-11-21T07:59:30.227Z,1.75
2022-11-21T08:00:29.975Z,1.87
2022-11-21T08:01:31.053Z,1.76
2022-11-21T08:02:29.975Z,1.79
2022-11-21T08:03:29.959Z,1.87
2022-11-21T08:04:29.960Z,1.85
2022-11-21T08:05:29.951Z,2.09
2022-11-21T08:06:29.961Z,1.89
2022-11-21T08:07:29.986Z,1.91
2022-11-21T08:08:29.932Z,1.85
2022-11-21T08:09:30.156Z,1.80
2022-11-21T08:10:29.900Z,1.79
2022-11-21T08:11:29.916Z,1.73
2022-11-21T08:12:29.891Z,1.71
2022-11-21T08:13:29.884Z,1.78
2022-11-21T08:14:29.871Z,1.73
2022-11-21T08:15:29.863Z,1.69
2022-11-21T08:16:29.869Z,1.69
2022-11-21T08:17:29.847Z,1.64
2022-11-21T08:18:29.842Z,1.62
2022-11-21T08:19:30.159Z,1.65
2022-11-21T08:20:29.834Z,1.78
2022-11-21T08:21:29.863Z,1.72
2022-11-21T08:22:29.808Z,1.79
2022-11-21T08:23:29.826Z,2.04
2022-11-21T08:24:29.807Z,2.02
2022-11-21T08:25:29.783Z,1.98
2022-11-21T08:26:29.841Z,1.99
2022-11-21T08:27:29.880Z,2.02
2022-11-21T08:28:29.763Z,2.02
2022-11-21T08:29:30.192Z,2.01
2022-11-21T08:30:29.749Z,1.94
2022-11-21T08:31:29.752Z,1.90
2022-11-21T08:32:29.722Z,1.90
2022-11-21T08:33:29.717Z,2.02
2022-11-21T08:34:29.701Z,2.10
2022-11-21T08:35:29.705Z,2.09
2022-11-21T08:36:29.730Z,2.09
2022-11-21T08:37:29.693Z,2.12
2022-11-21T08:38:29.748Z,2.22
2022-11-21T08:39:29.971Z,2.26
2022-11-21T08:40:29.666Z,2.38
2022-11-21T08:41:29.670Z,2.31
2022-11-21T08:42:29.645Z,2.44
2022-11-21T08:43:29.634Z,2.49
2022-11-21T08:44:29.810Z,2.46
2022-11-21T08:45:29.648Z,2.53
2022-11-21T08:46:29.626Z,2.66
2022-11-21T08:47:29.602Z,2.59
2022-11-21T08:48:29.600Z,2.55
2022-11-21T08:49:29.583Z,2.63
2022-11-21T08:50:29.581Z,2.66
2022-11-21T08:51:29.598Z,2.69
2022-11-21T08:52:29.557Z,2.67
2022-11-21T08:53:29.554Z,2.67
2022-11-21T08:54:29.823Z,2.61
2022-11-21T08:55:29.547Z,2.76
2022-11-21T08:56:29.552Z,2.73
2022-11-21T08:57:29.534Z,2.64
2022-11-21T08:58:29.513Z,2.70
2022-11-21T08:59:29.516Z,2.81
2022-11-21T09:00:29.501Z,2.61
2022-11-21T09:01:29.569Z,2.67
2022-11-21T09:02:29.485Z,2.64
2022-11-21T09:03:31.423Z,2.74
2022-11-21T09:04:30.716Z,2.82
2022-11-21T09:05:29.460Z,2.71
2022-11-21T09:06:29.475Z,2.77
2022-11-21T09:07:29.485Z,2.49
2022-11-21T09:08:29.443Z,2.55
2022-11-21T09:09:29.429Z,2.52
2022-11-21T09:10:30.425Z,2.52
2022-11-21T09:11:29.431Z,2.74
2022-11-21T09:12:29.410Z,2.76
2022-11-21T09:13:29.401Z,2.91
2022-11-21T09:14:29.668Z,2.89
2022-11-21T09:15:29.384Z,2.97
2022-11-21T09:16:29.398Z,3.06
2022-11-21T09:17:29.370Z,3.02
2022-11-21T09:18:29.358Z,2.85
2022-11-21T09:19:29.720Z,2.63
2022-11-21T09:20:29.414Z,2.64
2022-11-21T09:21:29.353Z,2.77
2022-11-21T09:22:29.325Z,2.64
2022-11-21T09:23:29.322Z,2.79
2022-11-21T09:24:29.311Z,2.69
2022-11-21T09:25:29.333Z,2.64
2022-11-21T09:26:29.311Z,2.53
2022-11-21T09:27:29.284Z,2.35
2022-11-21T09:28:29.275Z,2.20
2022-11-21T09:29:29.443Z,2.09
2022-11-21T09:30:29.248Z,1.91
2022-11-21T09:31:29.266Z,1.99
2022-11-21T09:32:29.225Z,2.02
2022-11-21T09:33:29.225Z,1.98
2022-11-21T09:34:29.532Z,2.09
2022-11-21T09:35:29.245Z,2.09
2022-11-21T09:36:29.230Z,2.19
2022-11-21T09:37:29.191Z,2.40
2022-11-21T09:38:29.185Z,2.59
2022-11-21T09:39:29.512Z,2.51
2022-11-21T09:40:29.159Z,2.56
2022-11-21T09:41:29.183Z,2.76
2022-11-21T09:42:29.151Z,2.79
2022-11-21T09:43:29.145Z,2.87
2022-11-21T09:44:29.574Z,2.84
2022-11-21T09:45:29.133Z,2.82
2022-11-21T09:46:29.135Z,2.92
2022-11-21T09:47:29.114Z,3.02
2022-11-21T09:48:29.103Z,3.00
2022-11-21T09:49:29.377Z,3.09
2022-11-21T09:50:29.082Z,3.10
2022-11-21T09:51:29.092Z,3.12
2022-11-21T09:52:29.051Z,2.97
2022-11-21T09:53:29.052Z,2.91
2022-11-21T09:54:29.257Z,3.05
2022-11-21T09:55:29.029Z,3.03
2022-11-21T09:56:29.034Z,3.09
2022-11-21T09:57:33.644Z,3.13
2022-11-21T09:58:31.014Z,3.23
2022-11-21T09:59:28.999Z,3.28
2022-11-21T10:00:29.075Z,3.34
2022-11-21T10:01:29.045Z,3.33
2022-11-21T10:02:28.972Z,3.42
2022-11-21T10:03:28.959Z,3.52
2022-11-21T10:04:29.335Z,3.61
2022-11-21T10:05:28.939Z,3.60
2022-11-21T10:06:28.958Z,3.67
2022-11-21T10:07:28.962Z,3.64
2022-11-21T10:08:28.910Z,3.49
2022-11-21T10:09:28.905Z,3.54
2022-11-21T10:10:28.894Z,3.28
2022-11-21T10:11:28.905Z,3.16
2022-11-21T10:12:28.878Z,2.97
2022-11-21T10:13:28.878Z,2.98
2022-11-21T10:14:29.198Z,2.91
2022-11-21T10:15:28.853Z,3.02
2022-11-21T10:16:28.851Z,3.10
2022-11-21T10:17:28.829Z,3.03
2022-11-21T10:18:28.818Z,3.15
2022-11-21T10:19:28.818Z,3.25
2022-11-21T10:20:28.801Z,3.33
2022-11-21T10:21:28.805Z,3.31
2022-11-21T10:22:28.792Z,3.39
2022-11-21T10:23:28.767Z,3.33
2022-11-21T10:24:29.054Z,3.34
2022-11-21T10:25:28.756Z,3.47
2022-11-21T10:26:28.763Z,3.47
2022-11-21T10:27:28.733Z,3.53
2022-11-21T10:28:28.734Z,3.47
2022-11-21T10:29:28.717Z,3.57
2022-11-21T10:30:28.710Z,3.70
2022-11-21T10:31:28.708Z,3.65
2022-11-21T10:32:28.689Z,3.67
2022-11-21T10:33:28.664Z,3.70
2022-11-21T10:34:29.967Z,3.61
2022-11-21T10:35:28.656Z,3.67
2022-11-21T10:36:28.671Z,3.65
2022-11-21T10:37:28.648Z,3.72
2022-11-21T10:38:28.644Z,3.79
2022-11-21T10:39:28.612Z,3.62
2022-11-21T10:40:28.611Z,3.57
2022-11-21T10:41:28.620Z,3.43
2022-11-21T10:42:29.602Z,3.43
2022-11-21T10:43:28.592Z,3.52
2022-11-21T10:44:28.742Z,3.36
2022-11-21T10:45:28.568Z,3.25
2022-11-21T10:46:28.578Z,3.09
2022-11-21T10:47:28.547Z,3.09
2022-11-21T10:48:28.536Z,3.05
2022-11-21T10:49:28.530Z,3.00
2022-11-21T10:50:28.518Z,2.98
2022-11-21T10:51:28.533Z,2.84
2022-11-21T10:52:28.495Z,2.88
2022-11-21T10:53:28.491Z,3.12
2022-11-21T10:54:28.843Z,3.13
2022-11-21T10:55:28.466Z,3.16
2022-11-21T10:56:28.486Z,3.30
2022-11-21T10:57:28.452Z,3.42
2022-11-21T10:58:28.438Z,3.34
2022-11-21T10:59:30.974Z,3.46
2022-11-21T11:00:28.421Z,3.47
2022-11-21T11:01:28.572Z,3.65
2022-11-21T11:02:28.405Z,3.65
2022-11-21T11:03:28.391Z,3.78
2022-11-21T11:04:30.291Z,3.72
2022-11-21T11:05:28.368Z,3.76
2022-11-21T11:06:28.375Z,3.71
2022-11-21T11:07:28.434Z,3.85
2022-11-21T11:08:28.342Z,3.86
2022-11-21T11:09:28.335Z,3.85
2022-11-21T11:10:28.625Z,3.94
2022-11-21T11:11:28.322Z,3.92
2022-11-21T11:12:28.297Z,4.01
2022-11-21T11:14:30.559Z,4.08
2022-11-21T11:15:28.259Z,4.07
2022-11-21T11:16:28.273Z,4.07
2022-11-21T11:17:28.251Z,4.04
2022-11-21T11:18:28.252Z,4.06
2022-11-21T11:19:35.445Z,4.25
2022-11-21T11:20:29.218Z,4.29
2022-11-21T11:21:28.225Z,4.24
2022-11-21T11:22:28.208Z,4.47
2022-11-21T11:23:28.180Z,4.47
2022-11-21T11:24:28.178Z,4.47
2022-11-21T11:25:28.165Z,4.47
2022-11-21T11:26:28.205Z,4.55
2022-11-21T11:27:28.147Z,4.72
2022-11-21T11:28:28.132Z,4.75
2022-11-21T11:29:28.368Z,4.73
2022-11-21T11:30:28.113Z,4.72
2022-11-21T11:31:28.102Z,4.84
2022-11-21T11:32:28.096Z,4.77
2022-11-21T11:33:28.079Z,4.89
2022-11-21T11:34:28.064Z,4.95
2022-11-21T11:35:28.044Z,5.07
2022-11-21T11:36:28.039Z,4.99
2022-11-21T11:37:28.050Z,4.96
2022-11-21T11:38:28.051Z,4.89
2022-11-21T11:39:28.220Z,4.86
2022-11-21T11:40:28.001Z,4.80
2022-11-21T11:41:28.012Z,4.76
2022-11-21T11:42:28.005Z,4.84
2022-11-21T11:43:27.974Z,4.84
2022-11-21T11:44:28.325Z,4.91
2022-11-21T11:45:27.963Z,4.91
2022-11-21T11:46:27.948Z,4.73
2022-11-21T11:47:27.943Z,4.67
2022-11-21T11:48:27.915Z,4.62
2022-11-21T11:49:27.903Z,4.58
2022-11-21T11:50:27.900Z,4.51
2022-11-21T11:51:27.912Z,4.55
2022-11-21T11:52:27.883Z,4.58
2022-11-21T11:53:27.863Z,4.59
2022-11-21T11:54:27.845Z,4.62
2022-11-21T11:55:27.835Z,4.62
2022-11-21T11:56:27.831Z,4.51
2022-11-21T11:57:27.836Z,4.69
2022-11-21T11:58:27.813Z,4.76
2022-11-21T11:59:28.059Z,4.69
2022-11-21T12:00:27.781Z,4.83
2022-11-21T12:01:27.772Z,4.73
2022-11-21T12:02:27.854Z,4.83
2022-11-21T12:03:27.740Z,4.86
2022-11-21T12:04:27.951Z,4.84
2022-11-21T12:05:27.741Z,4.92
2022-11-21T12:06:44.990Z,4.91
2022-11-21T12:08:45.208Z,4.84
2022-11-21T12:09:29.915Z,4.92
2022-11-21T12:10:27.700Z,5.01
2022-11-21T12:11:27.657Z,4.86
2022-11-21T12:12:27.673Z,4.73
2022-11-21T12:13:27.645Z,4.89
2022-11-21T12:14:27.631Z,4.80
2022-11-21T12:15:27.624Z,4.84
2022-11-21T12:16:27.621Z,4.91
2022-11-21T12:17:27.625Z,4.80
2022-11-21T12:18:27.576Z,4.89
2022-11-21T12:19:27.821Z,4.96
2022-11-21T12:20:27.565Z,4.96
2022-11-21T12:21:27.558Z,5.05
2022-11-21T12:22:27.548Z,5.07
2022-11-21T12:23:27.532Z,5.02
2022-11-21T12:24:27.550Z,5.10
2022-11-21T12:25:27.511Z,5.13
2022-11-21T12:26:27.488Z,5.14
2022-11-21T12:27:27.555Z,5.25
2022-11-21T12:28:27.473Z,5.37
2022-11-21T12:29:27.744Z,5.45
2022-11-21T12:30:27.444Z,5.45
2022-11-21T12:31:27.442Z,5.53
2022-11-21T12:32:27.453Z,5.50
2022-11-21T12:33:27.423Z,5.57
2022-11-21T12:34:27.418Z,5.59
2022-11-21T12:35:27.397Z,5.68
2022-11-21T12:36:27.385Z,5.67
2022-11-21T12:37:27.391Z,5.73
2022-11-21T12:38:27.360Z,5.73
2022-11-21T12:39:27.652Z,5.66
2022-11-21T12:40:27.357Z,5.56
2022-11-21T12:41:27.320Z,5.66
2022-11-21T12:42:27.325Z,5.64
2022-11-21T12:43:27.307Z,5.55
2022-11-21T12:44:27.293Z,5.59
2022-11-21T12:45:27.307Z,5.48
2022-11-21T12:46:27.268Z,5.48
2022-11-21T12:47:27.275Z,5.46
2022-11-21T12:48:27.245Z,5.55
2022-11-21T12:49:27.648Z,5.66
2022-11-21T12:50:27.252Z,5.59
2022-11-21T12:51:27.212Z,5.56
2022-11-21T12:52:27.223Z,5.57
2022-11-21T12:53:27.190Z,5.63
2022-11-21T12:54:27.186Z,5.59
2022-11-21T12:55:32.149Z,5.59
2022-11-21T12:56:29.150Z,5.57
2022-11-21T12:57:27.178Z,5.57
2022-11-21T12:58:27.121Z,5.64
2022-11-21T12:59:27.440Z,5.40
2022-11-21T13:00:27.115Z,5.43
2022-11-21T13:01:27.204Z,5.34
2022-11-21T13:02:27.111Z,5.32
2022-11-21T13:03:27.124Z,5.25
2022-11-21T13:04:27.063Z,5.13
2022-11-21T13:05:27.058Z,4.72
2022-11-21T13:06:27.054Z,4.52
2022-11-21T13:07:27.130Z,4.36
2022-11-21T13:08:27.029Z,4.22
2022-11-21T13:09:27.624Z,4.34
2022-11-21T13:10:27.000Z,4.37
2022-11-21T13:11:26.996Z,4.36
2022-11-21T13:12:27.001Z,4.28
2022-11-21T13:13:26.975Z,4.25
2022-11-21T13:14:26.964Z,4.24
2022-11-21T13:15:26.945Z,4.24
2022-11-21T13:16:26.936Z,4.18
2022-11-21T13:17:26.933Z,4.16
2022-11-21T13:18:26.912Z,4.07
2022-11-21T13:19:27.215Z,4.25
2022-11-21T13:20:26.886Z,4.29
2022-11-21T13:21:26.862Z,4.40